Time;durP1;ratioP1;P1;durP2;ratioP2;P2;SDS_P1;SDS_P2;PMS_P1;PMS_P2;Temp;Humidity;BMP_temperature;BMP_pressure;BME280_temperature;BME280_humidity;BME280_pressure;Samples;Min_cycle;Max_cycle;Signal;HPM_P1;HPM_P2
2022/03/15 00:00:54;;;;;;;13.07;6.37;;;6.70;63.10;;;;;;5008990;28;20375;-70
2022/03/15 00:03:21;;;;;;;12.53;7.47;;;6.70;63.20;;;;;;5006742;28;20013;-69
2022/03/15 00:05:47;;;;;;;10.35;6.40;;;6.70;63.00;;;;;;5007152;28;20314;-70
2022/03/15 00:08:13;;;;;;;10.67;6.33;;;6.70;62.60;;;;;;5007501;28;20660;-70
2022/03/15 00:10:39;;;;;;;12.20;6.63;;;6.70;62.50;;;;;;5000376;28;20025;-69
2022/03/15 00:13:06;;;;;;;8.73;6.53;;;6.70;62.50;;;;;;5008356;28;20451;-70
2022/03/15 00:15:34;;;;;;;9.18;6.00;;;6.70;62.10;;;;;;5002139;28;20018;-70
2022/03/15 00:17:59;;;;;;;9.93;6.30;;;6.80;62.10;;;;;;5007210;28;20140;-70
2022/03/15 00:20:25;;;;;;;13.00;6.60;;;6.80;62.20;;;;;;5005890;28;20037;-69
2022/03/15 00:22:55;;;;;;;9.17;5.67;;;6.70;62.40;;;;;;5000021;28;20407;-70
2022/03/15 00:25:21;;;;;;;12.65;7.38;;;6.80;62.70;;;;;;5003916;28;20558;-69
2022/03/15 00:27:50;;;;;;;10.88;6.50;;;6.80;62.30;;;;;;5006057;28;20029;-70
2022/03/15 00:30:17;;;;;;;10.63;6.53;;;6.70;62.50;;;;;;5006329;28;20034;-70
2022/03/15 00:32:43;;;;;;;14.68;7.60;;;6.70;62.80;;;;;;5002364;28;20026;-69
2022/03/15 00:35:18;;;;;;;11.25;7.22;;;6.70;63.20;;;;;;5009175;28;20441;-70
2022/03/15 00:37:48;;;;;;;15.38;7.93;;;6.70;63.50;;;;;;5002930;28;20474;-70
2022/03/15 00:40:15;;;;;;;12.68;8.23;;;6.70;64.30;;;;;;5001945;28;20464;-70
2022/03/15 00:42:42;;;;;;;21.00;9.10;;;6.60;64.00;;;;;;4999333;28;20037;-70
2022/03/15 00:45:08;;;;;;;;;;;6.60;64.40;;;;;;5007507;28;20172;-70
2022/03/15 00:47:33;;;;;;;14.73;7.68;;;6.60;64.70;;;;;;5005810;28;19909;-70
2022/03/15 00:49:59;;;;;;;13.83;8.73;;;6.60;65.30;;;;;;5007100;28;20041;-70
2022/03/15 00:52:25;;;;;;;14.47;8.73;;;6.60;64.80;;;;;;5011110;28;20044;-69
2022/03/15 00:54:51;;;;;;;14.98;7.97;;;6.50;64.70;;;;;;5000670;28;20064;-70
2022/03/15 00:57:18;;;;;;;13.93;8.50;;;6.50;65.00;;;;;;5003448;28;20207;-69
2022/03/15 00:59:43;;;;;;;16.90;9.75;;;6.40;65.20;;;;;;4999950;28;20018;-70
2022/03/15 01:02:09;;;;;;;14.27;8.23;;;6.40;65.90;;;;;;5010133;28;20056;-69
2022/03/15 01:04:35;;;;;;;16.53;8.63;;;6.30;66.00;;;;;;5001853;28;20029;-70
2022/03/15 01:07:00;;;;;;;12.80;8.23;;;6.30;66.40;;;;;;5010038;28;20045;-70
2022/03/15 01:09:27;;;;;;;12.77;7.53;;;6.30;66.40;;;;;;5007476;28;20033;-70
2022/03/15 01:11:53;;;;;;;13.60;8.00;;;6.30;66.30;;;;;;5006691;28;20026;-69
2022/03/15 01:14:20;;;;;;;14.20;8.23;;;6.30;66.30;;;;;;5014386;28;20099;-69
2022/03/15 01:16:46;;;;;;;;;;;6.30;66.40;;;;;;5009448;28;20022;-69
2022/03/15 01:19:12;;;;;;;12.88;7.63;;;6.30;66.40;;;;;;5008367;28;19917;-69
2022/03/15 01:21:38;;;;;;;15.60;8.37;;;6.20;66.10;;;;;;5007847;28;20375;-69
2022/03/15 01:24:08;;;;;;;15.35;9.07;;;6.20;66.10;;;;;;5007514;28;20033;-69
2022/03/15 01:26:37;;;;;;;11.15;7.53;;;6.20;66.00;;;;;;5003989;28;20667;-69
2022/03/15 01:29:03;;;;;;;12.93;8.90;;;6.20;66.40;;;;;;5006311;28;20033;-70
2022/03/15 01:31:29;;;;;;;15.80;8.30;;;6.20;66.60;;;;;;5010445;28;20045;-69
2022/03/15 01:33:55;;;;;;;14.52;8.13;;;6.20;66.70;;;;;;5009056;28;20032;-69
2022/03/15 01:36:21;;;;;;;14.45;8.15;;;6.20;67.10;;;;;;5005714;28;20018;-69
2022/03/15 01:38:47;;;;;;;13.30;8.07;;;6.20;67.50;;;;;;5007504;28;20391;-69
2022/03/15 01:41:13;;;;;;;15.20;8.83;;;6.20;67.70;;;;;;5005652;28;20040;-69
2022/03/15 01:43:40;;;;;;;16.07;8.93;;;6.20;68.00;;;;;;5010210;28;20025;-69
2022/03/15 01:46:06;;;;;;;14.55;8.30;;;6.20;68.20;;;;;;5007513;28;20025;-69
2022/03/15 01:48:33;;;;;;;13.10;7.63;;;6.20;68.00;;;;;;5000282;28;20075;-69
2022/03/15 01:50:59;;;;;;;;;;;6.20;67.70;;;;;;5010534;28;20036;-69
2022/03/15 01:53:25;;;;;;;11.95;7.25;;;6.20;67.40;;;;;;5004860;28;20267;-69
2022/03/15 01:55:51;;;;;;;11.90;7.63;;;6.20;67.20;;;;;;5006957;28;20022;-69
2022/03/15 01:58:16;;;;;;;14.73;6.87;;;6.20;67.10;;;;;;5013190;28;20486;-69
2022/03/15 02:00:44;;;;;;;13.70;7.50;;;6.20;67.10;;;;;;5002169;28;20032;-69
2022/03/15 02:03:10;;;;;;;13.30;7.53;;;6.20;67.20;;;;;;5009456;28;20140;-69
2022/03/15 02:05:36;;;;;;;13.27;7.03;;;6.10;67.20;;;;;;5003458;28;20068;-69
2022/03/15 02:08:17;;;;;;;15.17;7.50;;;6.10;67.20;;;;;;5009727;28;20105;-69
2022/03/15 02:10:43;;;;;;;13.82;7.88;;;6.10;67.30;;;;;;5005161;28;20053;-69
2022/03/15 02:13:10;;;;;;;10.35;6.82;;;6.10;67.40;;;;;;5005445;28;20073;-69
2022/03/15 02:15:36;;;;;;;;;;;6.10;67.80;;;;;;5003092;28;20026;-69
2022/03/15 02:18:03;;;;;;;12.52;7.20;;;6.10;68.10;;;;;;5009357;28;19964;-69
2022/03/15 02:20:30;;;;;;;13.02;7.10;;;6.10;67.90;;;;;;5005396;28;20133;-69
2022/03/15 02:22:57;;;;;;;12.57;7.80;;;6.10;68.00;;;;;;5006536;28;20148;-69
2022/03/15 02:25:23;;;;;;;;;;;6.00;68.30;;;;;;5008364;28;20045;-69
2022/03/15 02:27:49;;;;;;;12.88;7.53;;;5.90;68.70;;;;;;5004165;28;20489;-69
2022/03/15 02:30:16;;;;;;;11.65;7.32;;;5.80;69.30;;;;;;5006770;28;20068;-69
2022/03/15 02:32:42;;;;;;;12.15;7.45;;;5.80;69.80;;;;;;5005058;28;20022;-69
2022/03/15 02:35:09;;;;;;;11.70;7.03;;;5.70;70.00;;;;;;5003970;28;20014;-69
2022/03/15 02:37:34;;;;;;;13.70;6.72;;;5.60;70.50;;;;;;5005085;28;20026;-69
2022/03/15 02:40:00;;;;;;;13.00;7.60;;;5.60;70.90;;;;;;5010862;28;20026;-69
2022/03/15 02:42:26;;;;;;;10.70;6.63;;;5.50;71.30;;;;;;5004701;28;20035;-69
2022/03/15 02:44:52;;;;;;;14.20;8.27;;;5.50;71.60;;;;;;5009742;28;20822;-69
2022/03/15 02:47:17;;;;;;;13.43;8.00;;;5.50;71.60;;;;;;5010645;28;20463;-69
2022/03/15 02:49:43;;;;;;;13.60;7.30;;;5.50;71.70;;;;;;4998041;28;20038;-69
2022/03/15 02:52:10;;;;;;;16.27;8.03;;;5.40;71.50;;;;;;5012481;28;20398;-69
2022/03/15 02:54:39;;;;;;;;;;;5.40;72.10;;;;;;5006453;28;20105;-70
2022/03/15 02:57:04;;;;;;;16.42;8.43;;;5.40;72.30;;;;;;5002794;28;19913;-70
2022/03/15 02:59:31;;;;;;;15.40;8.83;;;5.40;72.80;;;;;;5009362;28;20026;-69
2022/03/15 03:01:57;;;;;;;13.98;7.75;;;5.40;73.10;;;;;;5008028;28;20022;-69
2022/03/15 03:04:23;;;;;;;14.73;8.37;;;5.30;73.10;;;;;;5012888;28;20761;-69
2022/03/15 03:06:49;;;;;;;18.50;9.63;;;5.30;73.70;;;;;;5005043;28;20091;-69
2022/03/15 03:09:16;;;;;;;17.05;8.65;;;5.30;73.70;;;;;;5009712;28;20444;-69
2022/03/15 03:11:42;;;;;;;;;;;5.30;73.70;;;;;;4999750;28;20482;-69
2022/03/15 03:14:12;;;;;;;14.88;8.13;;;5.30;73.80;;;;;;5012575;28;19948;-69
2022/03/15 03:16:39;;;;;;;17.85;8.30;;;5.30;74.10;;;;;;5000222;28;20056;-69
2022/03/15 03:19:08;;;;;;;14.48;8.70;;;5.30;74.20;;;;;;5014393;28;20022;-69
2022/03/15 03:21:36;;;;;;;16.85;8.75;;;5.20;74.20;;;;;;5003176;28;20018;-69
2022/03/15 03:24:05;;;;;;;14.25;8.70;;;5.20;74.50;;;;;;5004267;28;20018;-69
2022/03/15 03:26:36;;;;;;;14.10;8.13;;;5.20;74.70;;;;;;5007752;28;20368;-70
2022/03/15 03:29:02;;;;;;;17.50;9.07;;;5.20;75.10;;;;;;5003530;28;20116;-69
2022/03/15 03:31:30;;;;;;;18.30;9.03;;;5.20;75.90;;;;;;5008488;28;20260;-69
2022/03/15 03:33:56;;;;;;;16.65;8.93;;;5.10;75.70;;;;;;5004282;28;20064;-69
2022/03/15 03:36:24;;;;;;;14.53;8.70;;;5.10;75.90;;;;;;5006294;28;20096;-69
2022/03/15 03:38:51;;;;;;;15.13;8.85;;;5.00;76.30;;;;;;5005071;28;20037;-69
2022/03/15 03:41:16;;;;;;;16.08;8.90;;;5.00;76.70;;;;;;5003242;28;20021;-69
2022/03/15 03:43:42;;;;;;;15.20;9.07;;;5.00;76.70;;;;;;5002886;28;20524;-69
2022/03/15 03:46:08;;;;;;;20.20;9.90;;;5.00;76.70;;;;;;5002992;28;20060;-69
2022/03/15 03:48:34;;;;;;;14.50;8.75;;;5.00;76.90;;;;;;5000328;28;20034;-69
2022/03/15 03:51:01;;;;;;;18.03;8.77;;;4.90;77.00;;;;;;5009807;28;20093;-69
2022/03/15 03:53:26;;;;;;;15.13;8.52;;;4.90;77.20;;;;;;5007199;28;20765;-69
2022/03/15 03:55:52;;;;;;;17.27;9.90;;;4.90;77.50;;;;;;5003317;28;20091;-69
2022/03/15 03:58:19;;;;;;;15.50;9.00;;;4.90;77.80;;;;;;5006849;28;20116;-69
2022/03/15 04:00:44;;;;;;;14.52;8.85;;;4.90;77.90;;;;;;4997801;28;20111;-69
2022/03/15 04:03:13;;;;;;;27.50;10.77;;;4.80;77.90;;;;;;5007548;28;20034;-69
2022/03/15 04:05:40;;;;;;;16.60;9.82;;;4.80;78.20;;;;;;5004047;28;20091;-69
2022/03/15 04:08:06;;;;;;;18.20;8.80;;;4.80;78.30;;;;;;5007064;28;20032;-69
2022/03/15 04:10:32;;;;;;;14.95;9.43;;;4.80;78.40;;;;;;5006413;28;20049;-69
2022/03/15 04:12:58;;;;;;;21.17;10.10;;;4.70;78.60;;;;;;5005499;28;20487;-69
2022/03/15 04:15:24;;;;;;;15.23;8.73;;;4.70;78.90;;;;;;5005392;28;20026;-69
2022/03/15 04:17:51;;;;;;;16.77;8.68;;;4.70;79.30;;;;;;4999599;28;20143;-69
2022/03/15 04:20:16;;;;;;;19.40;9.90;;;4.70;79.20;;;;;;5003960;28;20026;-69
2022/03/15 04:22:43;;;;;;;16.23;9.47;;;4.70;79.70;;;;;;5003518;28;20663;-69
2022/03/15 04:25:09;;;;;;;17.63;9.65;;;4.70;80.20;;;;;;5010874;28;20033;-69
2022/03/15 04:27:35;;;;;;;18.00;9.45;;;4.70;80.40;;;;;;5003044;28;20029;-69
2022/03/15 04:30:02;;;;;;;17.15;9.80;;;4.70;80.40;;;;;;5006255;28;20034;-68
2022/03/15 04:32:28;;;;;;;16.05;9.15;;;4.60;80.50;;;;;;5009136;28;20064;-69
2022/03/15 04:34:54;;;;;;;25.10;10.77;;;4.60;80.80;;;;;;5001970;28;20033;-69
2022/03/15 04:37:20;;;;;;;14.17;9.47;;;4.60;80.90;;;;;;5012206;28;20029;-70
2022/03/15 04:39:45;;;;;;;16.80;9.53;;;4.60;81.90;;;;;;5011916;28;20022;-69
2022/03/15 04:42:11;;;;;;;15.20;9.40;;;4.60;81.30;;;;;;5011115;28;20386;-69
2022/03/15 04:44:37;;;;;;;17.43;9.60;;;4.60;81.50;;;;;;5006218;28;20030;-69
2022/03/15 04:47:03;;;;;;;17.70;9.60;;;4.60;81.30;;;;;;5005617;28;20025;-69
2022/03/15 04:49:29;;;;;;;17.47;9.80;;;4.60;81.10;;;;;;5009580;28;20019;-69
2022/03/15 04:51:54;;;;;;;17.63;9.80;;;4.60;80.70;;;;;;5009025;28;20036;-69
2022/03/15 04:54:20;;;;;;;17.13;10.13;;;4.60;81.20;;;;;;5008648;28;20056;-69
2022/03/15 04:56:46;;;;;;;17.53;9.73;;;4.60;80.00;;;;;;5006337;28;20022;-69
2022/03/15 04:59:11;;;;;;;24.83;10.73;;;4.60;80.20;;;;;;5009509;28;20069;-69
2022/03/15 05:01:37;;;;;;;14.90;9.57;;;4.60;79.40;;;;;;5009303;28;20104;-69
2022/03/15 05:04:03;;;;;;;16.17;9.97;;;4.70;77.70;;;;;;5006899;28;20029;-69
2022/03/15 05:06:29;;;;;;;17.40;10.20;;;4.50;78.20;;;;;;5013764;28;20144;-69
2022/03/15 05:08:55;;;;;;;18.70;10.20;;;4.50;78.20;;;;;;5007778;28;20121;-69
2022/03/15 05:11:21;;;;;;;18.30;10.33;;;4.50;79.00;;;;;;5009504;28;20021;-68
2022/03/15 05:13:49;;;;;;;16.33;9.40;;;4.50;78.50;;;;;;5004731;28;20259;-69
2022/03/15 05:16:20;;;;;;;16.88;9.57;;;4.50;79.20;;;;;;5011719;28;20116;-69
2022/03/15 05:18:47;;;;;;;22.20;10.95;;;4.50;79.30;;;;;;5000259;28;20026;-69
2022/03/15 05:21:16;;;;;;;21.05;11.07;;;4.60;79.40;;;;;;5010536;28;20014;-69
2022/03/15 05:23:47;;;;;;;19.10;10.68;;;4.80;78.40;;;;;;5008635;28;20483;-69
2022/03/15 05:26:14;;;;;;;17.85;10.70;;;5.00;77.80;;;;;;5006691;28;20113;-69
2022/03/15 05:28:41;;;;;;;16.85;10.63;;;5.10;77.60;;;;;;5007446;28;20706;-69
2022/03/15 05:31:07;;;;;;;;;;;5.10;77.10;;;;;;5011484;28;20052;-69
2022/03/15 05:33:33;;;;;;;19.92;11.00;;;5.10;77.20;;;;;;5005481;28;19988;-68
2022/03/15 05:35:59;;;;;;;18.43;10.87;;;5.10;76.50;;;;;;5009631;28;20136;-69
2022/03/15 05:38:25;;;;;;;19.15;10.43;;;5.10;76.40;;;;;;5006898;28;20815;-69
2022/03/15 05:40:51;;;;;;;18.17;11.03;;;5.10;76.30;;;;;;5007162;28;20052;-69
2022/03/15 05:43:18;;;;;;;15.57;9.83;;;5.10;76.00;;;;;;5009119;28;20277;-69
2022/03/15 05:45:45;;;;;;;19.05;10.57;;;5.10;75.90;;;;;;5008518;28;20428;-69
2022/03/15 05:48:11;;;;;;;18.02;10.50;;;5.20;75.60;;;;;;5006373;28;20049;-69
2022/03/15 05:50:36;;;;;;;19.13;10.43;;;5.20;74.80;;;;;;5006997;28;20033;-69
2022/03/15 05:53:05;;;;;;;19.00;11.00;;;5.30;74.60;;;;;;5007599;28;20076;-69
2022/03/15 05:55:34;;;;;;;21.25;11.10;;;5.40;74.40;;;;;;5008569;28;20091;-69
2022/03/15 05:58:00;;;;;;;16.10;10.15;;;5.50;73.60;;;;;;5009740;28;20505;-69
2022/03/15 06:00:27;;;;;;;22.00;11.38;;;5.60;73.60;;;;;;5009516;28;20037;-69
2022/03/15 06:02:53;;;;;;;19.05;10.35;;;5.70;73.40;;;;;;5006697;28;20034;-69
2022/03/15 06:05:19;;;;;;;38.17;12.15;;;5.90;72.60;;;;;;5009860;28;20025;-69
2022/03/15 06:07:49;;;;;;;20.70;11.13;;;6.10;73.00;;;;;;5005116;28;20022;-69
2022/03/15 06:10:17;;;;;;;19.80;11.32;;;6.30;72.60;;;;;;5004807;28;20260;-69
2022/03/15 06:12:44;;;;;;;19.50;10.52;;;6.50;70.60;;;;;;5006286;28;20809;-69
2022/03/15 06:15:10;;;;;;;15.93;10.13;;;6.70;69.00;;;;;;5006016;28;20026;-69
2022/03/15 06:17:43;;;;;;;16.35;10.52;;;6.80;68.80;;;;;;5008885;28;20034;-69
2022/03/15 06:20:12;;;;;;;21.63;11.60;;;6.90;67.00;;;;;;5009283;28;20359;-69
2022/03/15 06:22:38;;;;;;;22.48;11.10;;;6.90;66.60;;;;;;5001821;28;20088;-70
2022/03/15 06:25:04;;;;;;;22.50;9.57;;;7.00;66.20;;;;;;5003060;28;20025;-69
2022/03/15 06:27:32;;;;;;;15.73;9.98;;;7.10;65.10;;;;;;5009025;28;20068;-73
2022/03/15 06:29:58;;;;;;;24.75;11.48;;;7.30;65.20;;;;;;5001840;28;20052;-67
2022/03/15 06:32:26;;;;;;;17.30;10.23;;;7.50;64.50;;;;;;5005717;28;20553;-68
2022/03/15 06:34:51;;;;;;;19.75;10.02;;;7.50;63.30;;;;;;5008374;28;20037;-68
2022/03/15 06:37:17;;;;;;;29.13;11.10;;;7.50;63.30;;;;;;5009742;28;20034;-68
2022/03/15 06:39:44;;;;;;;40.93;14.70;;;7.50;63.00;;;;;;5007160;28;20029;-70
2022/03/15 06:42:11;;;;;;;;;;;7.40;63.70;;;;;;5009584;28;20097;-68
2022/03/15 06:44:38;;;;;;;34.30;11.90;;;7.50;63.30;;;;;;5013621;28;19960;-68
2022/03/15 06:47:03;;;;;;;37.35;11.98;;;7.50;62.50;;;;;;5006653;28;20548;-69
2022/03/15 06:49:29;;;;;;;18.23;10.20;;;7.40;63.00;;;;;;5007960;28;20041;-68
2022/03/15 06:51:55;;;;;;;19.67;11.63;;;7.40;62.40;;;;;;5003766;28;20078;-68
2022/03/15 06:54:20;;;;;;;16.93;10.70;;;7.20;63.20;;;;;;5004985;28;20026;-68
2022/03/15 06:56:46;;;;;;;23.77;10.73;;;7.00;63.40;;;;;;5011475;28;20321;-69
2022/03/15 06:59:12;;;;;;;16.50;9.93;;;7.00;63.20;;;;;;5008442;28;20138;-68
2022/03/15 07:01:38;;;;;;;19.67;10.93;;;7.10;63.60;;;;;;5007887;28;20397;-69
2022/03/15 07:04:03;;;;;;;21.90;10.60;;;7.30;63.80;;;;;;5008707;28;20036;-69
2022/03/15 07:06:29;;;;;;;21.90;10.73;;;7.40;62.70;;;;;;5004412;28;20037;-68
2022/03/15 07:08:55;;;;;;;21.90;10.27;;;7.30;63.10;;;;;;5007786;28;20161;-68
2022/03/15 07:11:20;;;;;;;30.17;15.77;;;7.20;63.30;;;;;;5008815;28;20026;-69
2022/03/15 07:13:46;;;;;;;20.43;11.97;;;7.50;63.00;;;;;;5006453;28;20037;-68
2022/03/15 07:16:12;;;;;;;19.30;11.73;;;7.80;62.50;;;;;;5010140;28;20128;-69
2022/03/15 07:18:37;;;;;;;22.27;12.00;;;7.90;62.00;;;;;;5006860;28;20423;-69
2022/03/15 07:21:03;;;;;;;19.70;10.43;;;8.40;61.60;;;;;;5007572;28;20022;-69
2022/03/15 07:23:29;;;;;;;18.83;10.90;;;8.60;60.00;;;;;;5003803;28;20034;-69
2022/03/15 07:25:54;;;;;;;18.83;10.43;;;9.10;58.80;;;;;;5001372;28;20492;-69
2022/03/15 07:28:21;;;;;;;17.35;11.20;;;9.40;58.20;;;;;;5003450;28;20073;-68
2022/03/15 07:30:47;;;;;;;21.23;11.03;;;9.80;56.20;;;;;;5002441;28;20046;-69
2022/03/15 07:33:12;;;;;;;18.57;11.33;;;9.90;55.90;;;;;;5006108;28;20018;-69
2022/03/15 07:35:38;;;;;;;20.17;12.50;;;9.80;56.20;;;;;;5004862;28;20474;-69
2022/03/15 07:38:04;;;;;;;28.50;14.57;;;9.90;55.80;;;;;;5001370;28;20038;-69
2022/03/15 07:40:31;;;;;;;18.98;11.60;;;9.90;56.30;;;;;;5007261;28;20103;-68
2022/03/15 07:42:57;;;;;;;18.92;10.68;;;9.70;56.20;;;;;;5005312;28;20183;-69
2022/03/15 07:45:23;;;;;;;18.20;10.27;;;9.70;56.30;;;;;;5003897;28;20033;-69
2022/03/15 07:47:49;;;;;;;19.75;10.73;;;9.70;56.10;;;;;;5002779;28;20024;-69
2022/03/15 07:50:16;;;;;;;19.47;10.57;;;9.30;56.60;;;;;;5003526;28;20029;-68
2022/03/15 07:52:42;;;;;;;18.30;10.25;;;9.70;55.70;;;;;;5003642;28;20622;-69
2022/03/15 07:55:08;;;;;;;15.93;10.93;;;9.80;55.80;;;;;;5007890;28;20033;-69
2022/03/15 07:57:34;;;;;;;15.52;10.40;;;9.40;56.10;;;;;;5010825;28;20037;-68
2022/03/15 07:59:59;;;;;;;15.80;10.27;;;9.10;57.20;;;;;;5005667;28;20057;-69
2022/03/15 08:02:25;;;;;;;18.80;10.97;;;9.50;56.70;;;;;;5006468;28;20037;-68
2022/03/15 08:04:53;;;;;;;18.03;10.30;;;9.40;56.40;;;;;;5001579;28;20074;-68
2022/03/15 08:07:21;;;;;;;15.90;9.52;;;10.00;55.80;;;;;;5005453;28;20021;-69
2022/03/15 08:09:47;;;;;;;16.83;10.48;;;10.10;55.20;;;;;;4995315;28;20017;-69
2022/03/15 08:12:13;;;;;;;17.23;10.33;;;10.30;54.90;;;;;;5015832;28;20091;-68
2022/03/15 08:14:39;;;;;;;15.63;10.43;;;10.70;54.30;;;;;;5007052;28;20018;-68
2022/03/15 08:17:04;;;;;;;17.33;10.63;;;10.80;53.20;;;;;;5005998;28;21009;-68
2022/03/15 08:19:30;;;;;;;20.63;11.30;;;11.10;53.50;;;;;;5009653;28;20029;-69
2022/03/15 08:21:58;;;;;;;18.33;11.30;;;11.40;52.80;;;;;;5005606;28;20083;-69
2022/03/15 08:24:24;;;;;;;36.90;11.38;;;11.80;52.20;;;;;;5012934;28;20033;-69
2022/03/15 08:26:50;;;;;;;22.93;12.10;;;12.60;51.20;;;;;;5008632;28;20037;-70
2022/03/15 08:29:16;;;;;;;;;;;13.30;49.50;;;;;;5011540;28;20026;-69
2022/03/15 08:31:42;;;;;;;15.07;9.93;;;13.70;47.60;;;;;;5009704;28;19915;-69
2022/03/15 08:34:08;;;;;;;16.00;11.33;;;13.90;47.50;;;;;;5006207;28;20014;-69
2022/03/15 08:36:34;;;;;;;22.25;11.48;;;14.30;47.00;;;;;;5010797;28;20030;-69
2022/03/15 08:39:00;;;;;;;17.58;10.38;;;13.70;46.40;;;;;;5014885;28;20141;-69
2022/03/15 08:41:26;;;;;;;27.00;12.33;;;13.70;47.50;;;;;;5013344;28;20534;-69
2022/03/15 08:43:52;;;;;;;15.90;10.90;;;13.20;48.00;;;;;;5004569;28;20030;-70
2022/03/15 08:46:17;;;;;;;20.48;10.50;;;13.10;48.80;;;;;;5010678;28;20056;-69
2022/03/15 08:48:43;;;;;;;26.83;11.50;;;13.30;48.40;;;;;;5007737;28;20049;-69
2022/03/15 08:51:09;;;;;;;19.25;11.05;;;13.50;48.30;;;;;;5004101;28;20018;-69
2022/03/15 08:53:35;;;;;;;17.77;11.27;;;13.80;47.30;;;;;;5011097;28;20045;-69
2022/03/15 08:56:01;;;;;;;15.37;11.13;;;14.10;47.70;;;;;;5009886;28;20038;-69
2022/03/15 08:58:27;;;;;;;;;;;14.60;45.80;;;;;;5011592;28;20668;-68
2022/03/15 09:00:53;;;;;;;14.02;10.02;;;14.40;46.40;;;;;;5007239;28;19909;-69
2022/03/15 09:03:19;;;;;;;16.90;11.37;;;14.30;46.10;;;;;;5013238;28;20026;-69
2022/03/15 09:05:45;;;;;;;14.00;10.98;;;14.10;46.40;;;;;;5006781;28;20022;-69
2022/03/15 09:08:11;;;;;;;15.55;11.20;;;14.80;46.00;;;;;;5009822;28;20116;-69
2022/03/15 09:10:36;;;;;;;15.95;11.07;;;14.70;45.90;;;;;;5008979;28;20125;-69
2022/03/15 09:13:03;;;;;;;18.00;11.30;;;14.50;46.00;;;;;;5003453;28;20041;-69
2022/03/15 09:15:29;;;;;;;16.80;11.23;;;14.30;46.40;;;;;;5010713;28;20068;-69
2022/03/15 09:17:57;;;;;;;17.63;10.30;;;13.70;47.00;;;;;;5011204;28;20108;-69
2022/03/15 09:20:24;;;;;;;15.43;11.05;;;13.70;47.80;;;;;;5010139;28;20048;-69
2022/03/15 09:22:50;;;;;;;21.52;11.68;;;13.80;47.80;;;;;;5007410;28;20459;-69
2022/03/15 09:25:16;;;;;;;15.10;10.55;;;13.90;48.10;;;;;;5010729;28;20030;-69
2022/03/15 09:27:42;;;;;;;17.57;11.20;;;14.20;47.50;;;;;;5012846;28;20029;-68
2022/03/15 09:30:08;;;;;;;23.00;11.30;;;13.60;47.40;;;;;;5041379;28;20045;-69
2022/03/15 09:32:33;;;;;;;21.52;11.20;;;14.00;48.20;;;;;;5005562;28;20047;-69
2022/03/15 09:34:59;;;;;;;17.73;11.07;;;14.30;47.30;;;;;;5003879;28;20029;-70
2022/03/15 09:37:25;;;;;;;15.15;10.43;;;14.40;47.70;;;;;;5002928;28;20052;-69
2022/03/15 09:39:52;;;;;;;22.42;11.20;;;14.30;47.00;;;;;;5002684;28;20030;-69
2022/03/15 09:42:20;;;;;;;22.38;11.10;;;14.10;47.80;;;;;;5007754;28;20498;-69
2022/03/15 09:44:47;;;;;;;117.07;17.30;;;14.30;47.90;;;;;;5012315;28;20021;-69
2022/03/15 09:47:17;;;;;;;19.75;11.80;;;14.60;48.10;;;;;;5013120;28;20075;-69
2022/03/15 09:49:44;;;;;;;15.85;10.70;;;14.80;47.20;;;;;;5008156;28;20186;-69
2022/03/15 09:52:11;;;;;;;19.63;11.82;;;15.40;46.50;;;;;;5006773;28;20097;-69
2022/03/15 09:54:37;;;;;;;;;;;15.70;45.60;;;;;;5009462;28;20033;-69
2022/03/15 09:57:05;;;;;;;17.10;11.50;;;16.10;45.40;;;;;;5007811;28;19912;-69
2022/03/15 09:59:32;;;;;;;20.00;11.45;;;16.30;45.20;;;;;;5013712;28;20021;-69
2022/03/15 10:01:59;;;;;;;20.45;11.50;;;16.90;44.40;;;;;;5005901;28;20029;-69
2022/03/15 10:04:26;;;;;;;20.63;11.30;;;17.40;43.40;;;;;;5009801;28;20041;-70
2022/03/15 10:06:53;;;;;;;20.70;11.70;;;17.40;43.60;;;;;;5007867;28;20857;-70
2022/03/15 10:09:20;;;;;;;21.23;11.85;;;17.60;43.00;;;;;;5002350;28;20034;-69
2022/03/15 10:11:46;;;;;;;25.08;12.07;;;17.30;43.60;;;;;;5003917;28;20336;-70
2022/03/15 10:14:11;;;;;;;16.42;10.90;;;18.10;43.00;;;;;;5004605;28;20026;-70
2022/03/15 10:16:42;;;;;;;15.43;11.20;;;18.80;42.00;;;;;;5012940;28;20479;-70
2022/03/15 10:19:09;;;;;;;16.98;11.63;;;19.20;41.30;;;;;;5017440;28;20029;-70
2022/03/15 10:21:46;;;;;;;20.33;10.82;;;19.10;41.30;;;;;;5004380;28;20447;-70
2022/03/15 10:24:22;;;;;;;;;;;18.90;41.70;;;;;;5005690;28;20033;-70
2022/03/15 10:26:54;;;;;;;16.48;11.00;;;19.50;40.80;;;;;;5006431;28;19996;-70
2022/03/15 10:29:21;;;;;;;15.25;10.85;;;19.40;40.90;;;;;;5002981;28;20395;-70
2022/03/15 10:31:48;;;;;;;18.08;10.90;;;19.40;41.10;;;;;;5013276;28;20037;-70
2022/03/15 10:34:15;;;;;;;16.63;10.40;;;19.40;40.80;;;;;;5036340;28;20526;-70
2022/03/15 10:36:45;;;;;;;17.20;10.45;;;18.70;41.20;;;;;;5003329;28;20022;-69
2022/03/15 10:39:12;;;;;;;14.57;9.00;;;18.30;42.00;;;;;;5004010;28;20017;-69
2022/03/15 10:41:52;;;;;;;12.48;9.10;;;17.30;43.30;;;;;;5005286;28;20032;-69
2022/03/15 10:44:19;;;;;;;18.65;9.00;;;16.80;44.60;;;;;;5014124;28;20037;-71
2022/03/15 10:46:57;;;;;;;19.05;7.95;;;16.90;45.70;;;;;;5014660;28;20382;-69
2022/03/15 10:49:23;;;;;;;13.25;8.00;;;17.30;44.30;;;;;;5010994;28;20105;-69
2022/03/15 10:51:48;;;;;;;11.65;8.60;;;17.10;43.80;;;;;;5011696;28;20029;-69
2022/03/15 10:54:15;;;;;;;15.87;8.10;;;16.70;44.30;;;;;;5009126;28;20029;-69
2022/03/15 10:56:41;;;;;;;16.05;8.60;;;16.40;44.90;;;;;;5006825;28;20017;-69
2022/03/15 10:59:11;;;;;;;11.77;7.90;;;15.50;45.70;;;;;;5006062;28;20021;-68
2022/03/15 11:01:41;;;;;;;13.05;7.93;;;15.10;46.50;;;;;;5004501;28;20076;-69
2022/03/15 11:04:11;;;;;;;15.25;8.73;;;15.20;46.60;;;;;;5004326;28;20419;-69
2022/03/15 11:06:44;;;;;;;13.20;8.20;;;15.20;46.90;;;;;;5006172;28;20609;-69
2022/03/15 11:09:25;;;;;;;13.25;7.68;;;15.10;47.00;;;;;;5004952;28;20478;-68
2022/03/15 11:11:55;;;;;;;13.70;7.60;;;14.90;47.80;;;;;;5012035;28;20060;-70
2022/03/15 11:14:49;;;;;;;11.82;8.10;;;14.80;47.50;;;;;;5009079;28;20026;-68
2022/03/15 11:17:21;;;;;;;13.00;7.25;;;14.60;48.10;;;;;;5013505;28;20394;-68
2022/03/15 11:19:55;;;;;;;9.32;6.72;;;14.60;48.30;;;;;;5001796;28;20811;-69
2022/03/15 11:22:34;;;;;;;9.90;7.07;;;14.70;48.10;;;;;;5009553;28;20100;-69
2022/03/15 11:25:11;;;;;;;9.82;6.82;;;14.90;48.00;;;;;;5006627;28;20116;-68
2022/03/15 11:27:40;;;;;;;12.50;7.03;;;15.00;48.00;;;;;;5003579;28;20021;-68
2022/03/15 11:30:09;;;;;;;9.18;6.45;;;14.80;47.90;;;;;;5006872;28;20036;-69
2022/03/15 11:32:36;;;;;;;11.13;6.50;;;14.80;48.00;;;;;;5003444;28;20037;-69
2022/03/15 11:35:03;;;;;;;13.48;6.43;;;14.90;48.10;;;;;;5011753;28;20029;-68
2022/03/15 11:37:30;;;;;;;10.13;6.70;;;14.80;48.20;;;;;;5001105;28;20478;-69
2022/03/15 11:40:02;;;;;;;11.55;7.80;;;14.70;47.90;;;;;;5009077;28;20075;-69
2022/03/15 11:42:28;;;;;;;12.80;7.03;;;14.60;48.10;;;;;;5002746;28;20024;-69
2022/03/15 11:45:12;;;;;;;10.00;6.07;;;14.70;48.50;;;;;;5004729;28;20091;-68
2022/03/15 11:47:46;;;;;;;9.88;6.20;;;14.60;48.30;;;;;;5008427;28;20133;-68
2022/03/15 11:50:35;;;;;;;11.07;6.65;;;14.40;48.60;;;;;;5007623;28;20350;-68
2022/03/15 11:53:06;;;;;;;9.38;6.10;;;14.50;49.00;;;;;;5004174;28;20071;-68
2022/03/15 11:55:53;;;;;;;11.95;6.18;;;14.50;49.00;;;;;;5001691;28;20418;-69
2022/03/15 11:58:27;;;;;;;11.00;6.95;;;14.60;49.30;;;;;;5006410;28;20033;-68
2022/03/15 12:00:54;;;;;;;12.93;6.30;;;14.70;48.90;;;;;;5006582;28;20087;-68
2022/03/15 12:03:23;;;;;;;11.02;6.30;;;14.80;48.40;;;;;;5012377;28;20423;-68
2022/03/15 12:05:55;;;;;;;10.35;6.00;;;15.00;48.70;;;;;;5005024;28;20171;-68
2022/03/15 12:08:27;;;;;;;8.60;6.10;;;15.40;48.90;;;;;;5006749;28;20072;-68
2022/03/15 12:11:01;;;;;;;11.00;6.00;;;15.70;47.80;;;;;;5003426;28;20034;-68
2022/03/15 12:13:43;;;;;;;11.40;6.45;;;15.70;47.80;;;;;;5005214;28;20036;-69
2022/03/15 12:16:15;;;;;;;10.00;6.72;;;16.10;48.00;;;;;;5007486;28;20112;-68
2022/03/15 12:18:54;;;;;;;7.72;5.45;;;16.20;47.10;;;;;;5001797;28;20097;-66
2022/03/15 12:21:26;;;;;;;8.95;5.32;;;16.00;46.70;;;;;;5007137;28;20603;-66
2022/03/15 12:23:54;;;;;;;7.13;5.10;;;16.00;47.10;;;;;;5005383;28;20188;-66
2022/03/15 12:26:21;;;;;;;8.75;5.45;;;15.90;47.40;;;;;;5009504;28;20045;-66
2022/03/15 12:29:07;;;;;;;8.30;5.10;;;15.90;47.20;;;;;;5008785;28;20068;-66
2022/03/15 12:31:44;;;;;;;9.40;4.70;;;16.00;47.70;;;;;;5007920;28;20502;-67
2022/03/15 12:34:12;;;;;;;6.82;4.78;;;16.10;47.70;;;;;;5007839;28;20083;-66
2022/03/15 12:37:07;;;;;;;7.45;4.63;;;16.00;47.70;;;;;;5007976;28;20021;-66
2022/03/15 12:39:34;;;;;;;8.23;5.25;;;15.80;48.50;;;;;;4999409;28;20038;-66
2022/03/15 12:42:07;;;;;;;13.23;6.15;;;15.50;48.40;;;;;;5003892;28;20402;-66
2022/03/15 12:44:59;;;;;;;12.70;5.30;;;15.40;48.50;;;;;;5003438;28;20977;-68